createdAt,value
2023-03-23T02:00:15.554Z,503.00
2023-03-23T02:04:15.591Z,507.00
2023-03-23T02:08:15.658Z,507.00
2023-03-23T02:12:15.648Z,506.00
2023-03-23T02:16:15.698Z,500.00
2023-03-23T02:20:15.755Z,508.00
2023-03-23T02:24:15.861Z,509.00
2023-03-23T02:28:15.868Z,507.00
2023-03-23T02:32:15.864Z,509.00
2023-03-23T02:36:15.857Z,508.00
2023-03-23T02:40:15.848Z,509.00
2023-03-23T02:44:15.833Z,505.00
2023-03-23T02:48:15.816Z,505.00
2023-03-23T02:52:15.799Z,505.00
2023-03-23T02:56:15.785Z,506.00
2023-03-23T03:00:15.960Z,503.00
2023-03-23T03:04:15.748Z,506.00
2023-03-23T03:08:15.736Z,505.00
2023-03-23T03:12:15.696Z,505.00
2023-03-23T03:16:15.663Z,503.00
2023-03-23T03:20:15.641Z,504.00
2023-03-23T03:24:15.618Z,507.00
2023-03-23T03:28:15.612Z,506.00
2023-03-23T03:32:15.983Z,505.00
2023-03-23T03:36:15.637Z,504.00
2023-03-23T03:40:15.853Z,503.00
2023-03-23T03:44:15.935Z,506.00
2023-03-23T03:48:16.498Z,504.00
2023-03-23T03:52:16.297Z,507.00
2023-03-23T03:56:16.446Z,505.00
2023-03-23T04:00:16.639Z,501.00
2023-03-23T04:04:16.798Z,506.00
2023-03-23T04:08:16.916Z,507.00
2023-03-23T04:12:17.059Z,506.00
2023-03-23T04:16:17.176Z,504.00
2023-03-23T04:20:17.280Z,503.00
2023-03-23T04:24:23.242Z,507.00
2023-03-23T04:28:18.309Z,506.00
2023-03-23T04:32:17.220Z,513.00
2023-03-23T04:36:17.237Z,505.00
2023-03-23T04:40:17.230Z,502.00
2023-03-23T04:44:17.152Z,506.00
2023-03-23T04:48:17.139Z,510.00
2023-03-23T04:52:17.090Z,503.00
2023-03-23T04:56:17.051Z,503.00
2023-03-23T05:00:17.019Z,503.00
2023-03-23T05:04:16.988Z,504.00
2023-03-23T05:08:16.954Z,507.00
2023-03-23T05:12:16.915Z,501.00
2023-03-23T05:16:17.031Z,510.00
2023-03-23T05:20:16.875Z,507.00
2023-03-23T05:24:16.868Z,505.00
2023-03-23T05:28:16.864Z,507.00
2023-03-23T05:32:16.863Z,511.00
2023-03-23T05:36:16.841Z,506.00
2023-03-23T05:40:16.830Z,503.00
2023-03-23T05:44:16.801Z,510.00
2023-03-23T05:48:16.795Z,506.00
2023-03-23T05:52:16.806Z,502.00
2023-03-23T05:56:16.849Z,503.00
2023-03-23T06:00:16.767Z,505.00
2023-03-23T06:04:16.772Z,508.00
2023-03-23T06:08:16.805Z,505.00
2023-03-23T06:12:16.828Z,501.00
2023-03-23T06:16:16.856Z,510.00
2023-03-23T06:20:16.884Z,508.00
2023-03-23T06:24:16.915Z,508.00
2023-03-23T06:28:16.966Z,500.00
2023-03-23T06:32:17.037Z,525.00
2023-03-23T06:36:17.055Z,565.00
2023-03-23T06:40:17.143Z,618.00
2023-03-23T06:44:17.112Z,660.00
2023-03-23T06:48:17.079Z,774.00
2023-03-23T06:52:17.025Z,885.00
2023-03-23T06:56:16.989Z,1088.00
2023-03-23T07:00:16.930Z,1183.00
2023-03-23T07:04:16.880Z,1328.00
2023-03-23T07:08:16.832Z,1437.00
2023-03-23T07:12:16.790Z,1565.00
2023-03-23T07:16:18.508Z,1713.00
2023-03-23T07:20:16.836Z,1824.00
2023-03-23T07:24:16.913Z,1872.00
2023-03-23T07:28:17.037Z,1420.00
2023-03-23T07:32:17.181Z,958.00
2023-03-23T07:36:17.365Z,731.00
2023-03-23T07:40:17.395Z,519.00
2023-03-23T07:44:17.432Z,488.00
2023-03-23T07:48:21.445Z,612.00
2023-03-23T07:52:17.504Z,636.00
2023-03-23T07:56:17.481Z,715.00
2023-03-23T08:00:17.452Z,780.00
2023-03-23T08:04:17.417Z,841.00
2023-03-23T08:08:17.382Z,858.00
2023-03-23T08:12:17.346Z,874.00
2023-03-23T08:16:17.294Z,655.00
2023-03-23T08:20:17.293Z,588.00
2023-03-23T08:24:17.233Z,634.00
2023-03-23T08:28:17.200Z,752.00
2023-03-23T08:32:17.186Z,806.00
2023-03-23T08:36:17.170Z,834.00
2023-03-23T08:40:18.286Z,860.00
2023-03-23T08:44:17.011Z,926.00
2023-03-23T08:48:17.185Z,987.00
2023-03-23T08:52:18.017Z,1057.00
2023-03-23T08:56:17.504Z,1127.00
2023-03-23T09:00:17.768Z,1264.00
2023-03-23T09:04:17.726Z,1356.00
2023-03-23T09:08:17.837Z,1365.00
2023-03-23T09:12:17.980Z,1284.00
2023-03-23T09:16:18.166Z,1105.00
2023-03-23T09:20:18.200Z,1073.00
2023-03-23T09:24:18.299Z,989.00
2023-03-23T09:28:18.395Z,487.00
2023-03-23T09:32:18.529Z,400.00
2023-03-23T09:36:18.675Z,599.00
2023-03-23T09:40:19.116Z,884.00
2023-03-23T09:44:18.879Z,1048.00
2023-03-23T09:48:18.954Z,1207.00
2023-03-23T09:52:18.905Z,1400.00
2023-03-23T09:56:18.913Z,1515.00
2023-03-23T10:00:18.799Z,1681.00
2023-03-23T10:04:18.718Z,1856.00
2023-03-23T10:08:18.688Z,1981.00
2023-03-23T10:12:19.146Z,2080.00
2023-03-23T10:16:18.539Z,2141.00
2023-03-23T10:20:18.473Z,2186.00
2023-03-23T10:24:18.412Z,2183.00
2023-03-23T10:28:18.355Z,2251.00
2023-03-23T10:32:19.059Z,2331.00
2023-03-23T10:36:18.258Z,2327.00
2023-03-23T10:40:18.123Z,2311.00
2023-03-23T10:44:18.054Z,2383.00
2023-03-23T10:48:17.964Z,2553.00
2023-03-23T10:52:17.894Z,2679.00
2023-03-23T10:56:17.820Z,2783.00
2023-03-23T11:00:17.742Z,2897.00
2023-03-23T11:04:17.649Z,3000.00
2023-03-23T11:08:17.642Z,3129.00
2023-03-23T11:12:19.398Z,3134.00
2023-03-23T11:16:17.462Z,3135.00
2023-03-23T11:20:17.398Z,3115.00
2023-03-23T11:24:17.334Z,3097.00
2023-03-23T11:28:17.269Z,3075.00
2023-03-23T11:32:17.193Z,3070.00
2023-03-23T11:36:17.297Z,3055.00
2023-03-23T11:40:17.415Z,3033.00
2023-03-23T11:44:17.536Z,3015.00
2023-03-23T11:48:17.676Z,2997.00
2023-03-23T11:52:17.848Z,2980.00
2023-03-23T11:56:17.985Z,2955.00
2023-03-23T12:00:18.141Z,2934.00
2023-03-23T12:04:18.331Z,2898.00
2023-03-23T12:12:18.692Z,2851.00
2023-03-23T12:16:18.896Z,2845.00
2023-03-23T12:20:19.074Z,2826.00
2023-03-23T12:24:19.268Z,2795.00
2023-03-23T12:28:19.538Z,2768.00
2023-03-23T12:32:19.696Z,2752.00
2023-03-23T12:36:19.951Z,2745.00
2023-03-23T12:40:20.136Z,2720.00
2023-03-23T12:44:19.864Z,2696.00
2023-03-23T12:48:19.815Z,2681.00
2023-03-23T12:52:19.757Z,2677.00
2023-03-23T12:56:19.708Z,2646.00
2023-03-23T13:00:19.666Z,2630.00
2023-03-23T13:04:19.612Z,2577.00
2023-03-23T13:08:19.578Z,2489.00
2023-03-23T13:12:19.519Z,2527.00
2023-03-23T13:16:19.474Z,2543.00
2023-03-23T13:20:19.427Z,2540.00
2023-03-23T13:24:19.373Z,2510.00
2023-03-23T13:28:19.327Z,2510.00
2023-03-23T13:32:19.281Z,2499.00
2023-03-23T13:36:19.397Z,2476.00
2023-03-23T13:40:19.587Z,2476.00
2023-03-23T13:44:19.789Z,2465.00
2023-03-23T13:48:19.988Z,2445.00
2023-03-23T13:52:19.934Z,2433.00
2023-03-23T13:56:19.893Z,2394.00
2023-03-23T14:00:19.862Z,2398.00
2023-03-23T14:04:19.832Z,2379.00
2023-03-23T14:08:19.809Z,2364.00
2023-03-23T14:12:19.785Z,2350.00
2023-03-23T14:16:19.784Z,2345.00
2023-03-23T14:20:19.696Z,2327.00
2023-03-23T14:24:19.667Z,2298.00
2023-03-23T14:28:19.730Z,2285.00
2023-03-23T14:32:19.600Z,2274.00
2023-03-23T14:36:19.583Z,2269.00
2023-03-23T14:40:19.554Z,2246.00
2023-03-23T14:44:19.671Z,2223.00
2023-03-23T14:48:19.794Z,2228.00
2023-03-23T14:52:20.005Z,2201.00
2023-03-23T14:56:20.051Z,2185.00
2023-03-23T15:00:20.185Z,2180.00
2023-03-23T15:04:20.399Z,2172.00
2023-03-23T15:08:20.740Z,2165.00
2023-03-23T15:12:20.605Z,2140.00
2023-03-23T15:16:20.731Z,2131.00
2023-03-23T15:20:20.866Z,2118.00
2023-03-23T15:24:21.072Z,2117.00
2023-03-23T15:28:21.246Z,2093.00
2023-03-23T15:32:20.980Z,2090.00
2023-03-23T15:36:20.935Z,2099.00
2023-03-23T15:40:20.879Z,2098.00
2023-03-23T15:44:20.840Z,2068.00
2023-03-23T15:48:21.030Z,2056.00
2023-03-23T15:52:20.975Z,2043.00
2023-03-23T15:56:20.928Z,2028.00
2023-03-23T16:00:20.954Z,2022.00
2023-03-23T16:04:20.828Z,2006.00
2023-03-23T16:08:20.778Z,2004.00
2023-03-23T16:12:20.724Z,1969.00
2023-03-23T16:16:20.818Z,1978.00
2023-03-23T16:20:20.648Z,1965.00
2023-03-23T16:24:20.585Z,1944.00
2023-03-23T16:28:20.739Z,1939.00
2023-03-23T16:32:20.698Z,1898.00
2023-03-23T16:36:20.697Z,1880.00
2023-03-23T16:40:20.631Z,1890.00
2023-03-23T16:44:20.548Z,1879.00
2023-03-23T16:48:21.275Z,1868.00
2023-03-23T16:52:20.494Z,1869.00
2023-03-23T16:56:20.786Z,1880.00
2023-03-23T17:00:20.455Z,1844.00
2023-03-23T17:04:20.419Z,1851.00
2023-03-23T17:08:20.571Z,1838.00
2023-03-23T17:12:20.677Z,1832.00
2023-03-23T17:16:20.580Z,1820.00
2023-03-23T17:20:20.789Z,1825.00
2023-03-23T17:24:20.533Z,1806.00
2023-03-23T17:28:21.103Z,1816.00
2023-03-23T17:32:20.489Z,1784.00
2023-03-23T17:36:20.563Z,1778.00
2023-03-23T17:40:20.456Z,1786.00
2023-03-23T17:44:20.422Z,1759.00
2023-03-23T17:48:20.465Z,1757.00
2023-03-23T17:52:20.649Z,1748.00
2023-03-23T17:56:20.846Z,1742.00
2023-03-23T18:00:21.028Z,1740.00
2023-03-23T18:04:21.220Z,1737.00
2023-03-23T18:08:21.417Z,1716.00
2023-03-23T18:12:21.808Z,1696.00
2023-03-23T18:16:21.814Z,1694.00
2023-03-23T18:20:21.960Z,1694.00
2023-03-23T18:24:22.164Z,1681.00
2023-03-23T18:28:22.344Z,1687.00
2023-03-23T18:32:22.537Z,1694.00
2023-03-23T18:36:22.726Z,1668.00
2023-03-23T18:40:22.933Z,1668.00
2023-03-23T18:44:23.162Z,1648.00
2023-03-23T18:48:23.822Z,1634.00
2023-03-23T18:52:23.525Z,1636.00
2023-03-23T18:56:23.715Z,1632.00
2023-03-23T19:00:23.944Z,1611.00
2023-03-23T19:04:24.144Z,1612.00
2023-03-23T19:08:24.312Z,1608.00
2023-03-23T19:12:24.525Z,1587.00
2023-03-23T19:16:24.707Z,1598.00
2023-03-23T19:20:54.860Z,1585.00
2023-03-23T19:24:25.777Z,1579.00
2023-03-23T19:32:25.722Z,1571.00
2023-03-23T19:36:24.773Z,1567.00
2023-03-23T19:40:39.592Z,1540.00
2023-03-23T19:44:25.823Z,1554.00
2023-03-23T19:48:24.795Z,1550.00
2023-03-23T19:52:25.065Z,1541.00
2023-03-23T19:56:25.464Z,1526.00
2023-03-23T20:00:25.184Z,1521.00
2023-03-23T20:04:25.812Z,1509.00
2023-03-23T20:08:25.445Z,1519.00
2023-03-23T20:12:25.586Z,1501.00
2023-03-23T20:16:25.714Z,1492.00
2023-03-23T20:20:25.861Z,1497.00
2023-03-23T20:24:25.883Z,1481.00
2023-03-23T20:28:25.985Z,1476.00
2023-03-23T20:32:26.291Z,1463.00
2023-03-23T20:36:26.318Z,1456.00
2023-03-23T20:40:26.398Z,1449.00
2023-03-23T20:44:26.465Z,1458.00
2023-03-23T20:48:26.572Z,1438.00
2023-03-23T20:52:26.685Z,1432.00
2023-03-23T20:56:26.872Z,1426.00
2023-03-23T21:00:26.972Z,1415.00
2023-03-23T21:04:27.846Z,1427.00
2023-03-23T21:08:27.282Z,1412.00
2023-03-23T21:12:27.498Z,1400.00
2023-03-23T21:16:27.524Z,1390.00
2023-03-23T21:20:27.600Z,1384.00
2023-03-23T21:24:27.766Z,1378.00
2023-03-23T21:28:27.863Z,1374.00
2023-03-23T21:32:27.979Z,1359.00
2023-03-23T21:36:28.023Z,1349.00
2023-03-23T21:40:28.051Z,1339.00
2023-03-23T21:44:28.068Z,1346.00
2023-03-23T21:48:28.388Z,1332.00
2023-03-23T21:52:28.180Z,1333.00
2023-03-23T21:56:28.257Z,1313.00
2023-03-23T22:00:28.248Z,1308.00
2023-03-23T22:04:28.314Z,1301.00
2023-03-23T22:08:28.259Z,1303.00
2023-03-23T22:12:28.255Z,1294.00
2023-03-23T22:16:28.380Z,1280.00
2023-03-23T22:20:28.284Z,1282.00
2023-03-23T22:24:28.312Z,1270.00
2023-03-23T22:28:28.408Z,1263.00
2023-03-23T22:32:28.426Z,1261.00
2023-03-23T22:36:28.364Z,1251.00
2023-03-23T22:40:28.364Z,1235.00
2023-03-23T22:44:28.930Z,1235.00
2023-03-23T22:48:28.321Z,1248.00
2023-03-23T22:52:28.418Z,1218.00
2023-03-23T22:56:28.313Z,1221.00
2023-03-23T23:00:28.277Z,1206.00
2023-03-23T23:04:28.329Z,1206.00
2023-03-23T23:08:28.322Z,1200.00
2023-03-23T23:12:28.311Z,1194.00
2023-03-23T23:16:28.382Z,1202.00
2023-03-23T23:20:28.528Z,1163.00
2023-03-23T23:24:28.762Z,1169.00
2023-03-23T23:28:28.993Z,1150.00
2023-03-23T23:32:29.318Z,1161.00
2023-03-23T23:36:29.496Z,1145.00
2023-03-23T23:40:29.636Z,1133.00
2023-03-23T23:44:29.644Z,1128.00
2023-03-23T23:48:29.653Z,1125.00
2023-03-23T23:52:29.650Z,1110.00
2023-03-23T23:56:29.707Z,1110.00
